CTV877 WIMN-WIHH
Flight info
| Callsign | CTV877 |
|---|---|
| Flight time | N/A |
| Altitude | 37000 |
| Route | MEDIA W12 PKU A585 PLB G461 BORAS W12E BIDAK |
| Aircraft | A320/M-SDE3FGHIRWY/LB1 |
Departure
| Time | N/A |
|---|---|
| Airport | Silangit Airport (WIMN) |
Arrival
| Time | 2026-04-16 07:07 |
|---|---|
| Airport | Halim Perdanakusuma International Airport (WIHH) |
| Time | Latitude | Longitude | Altitude | Speed | Heading |
|---|---|---|---|---|---|
| 2026-04-16 06:23 | -4.05593 | 106.05680 | 36882 ft | 449 kts | 119° |
| 2026-04-16 06:23 | -4.08717 | 106.11095 | 36876 ft | 449 kts | 119° |
| 2026-04-16 06:24 | -4.11838 | 106.16506 | 36880 ft | 449 kts | 119° |
| 2026-04-16 06:24 | -4.14971 | 106.21931 | 36881 ft | 450 kts | 119° |
| 2026-04-16 06:25 | -4.18112 | 106.27332 | 36882 ft | 449 kts | 119° |
| 2026-04-16 06:25 | -4.21259 | 106.32744 | 36885 ft | 449 kts | 119° |
| 2026-04-16 06:26 | -4.23864 | 106.37232 | 36877 ft | 449 kts | 119° |
| 2026-04-16 06:26 | -4.26973 | 106.42663 | 36871 ft | 449 kts | 119° |
| 2026-04-16 06:27 | -4.30076 | 106.48099 | 36867 ft | 450 kts | 119° |
| 2026-04-16 06:27 | -4.33204 | 106.53526 | 36867 ft | 450 kts | 119° |
| 2026-04-16 06:28 | -4.36349 | 106.58949 | 36870 ft | 451 kts | 119° |
| 2026-04-16 06:28 | -4.39495 | 106.64392 | 36873 ft | 451 kts | 119° |
| 2026-04-16 06:29 | -4.42626 | 106.69835 | 36872 ft | 451 kts | 119° |
| 2026-04-16 06:29 | -4.45752 | 106.75266 | 36873 ft | 451 kts | 119° |
| 2026-04-16 06:30 | -4.48892 | 106.80710 | 36873 ft | 450 kts | 119° |
| 2026-04-16 06:30 | -4.52026 | 106.86140 | 36869 ft | 450 kts | 119° |
| 2026-04-16 06:31 | -4.55153 | 106.91574 | 36870 ft | 450 kts | 119° |
| 2026-04-16 06:31 | -4.58283 | 106.97008 | 36869 ft | 450 kts | 119° |
| 2026-04-16 06:32 | -4.61680 | 107.02277 | 36870 ft | 451 kts | 131° |
| 2026-04-16 06:32 | -4.63957 | 107.04444 | 36868 ft | 452 kts | 142° |
| 2026-04-16 06:32 | -4.66596 | 107.06144 | 36868 ft | 453 kts | 152° |
| 2026-04-16 06:33 | -4.69532 | 107.07328 | 36862 ft | 455 kts | 163° |
| 2026-04-16 06:33 | -4.72622 | 107.08028 | 36860 ft | 455 kts | 167° |
| 2026-04-16 06:33 | -4.78832 | 107.09312 | 36859 ft | 456 kts | 167° |
| 2026-04-16 06:34 | -4.85056 | 107.10623 | 36859 ft | 457 kts | 167° |
| 2026-04-16 06:34 | -4.91237 | 107.11923 | 36861 ft | 457 kts | 167° |
| 2026-04-16 06:35 | -4.97455 | 107.13233 | 36864 ft | 457 kts | 167° |
| 2026-04-16 06:35 | -5.03720 | 107.14558 | 36428 ft | 460 kts | 167° |
| 2026-04-16 06:36 | -5.06816 | 107.15214 | 35413 ft | 459 kts | 167° |
| 2026-04-16 06:36 | -5.09915 | 107.15868 | 34580 ft | 452 kts | 167° |
| 2026-04-16 06:36 | -5.12974 | 107.16512 | 33712 ft | 447 kts | 167° |
| 2026-04-16 06:36 | -5.16009 | 107.17150 | 32785 ft | 442 kts | 167° |
| 2026-04-16 06:37 | -5.18970 | 107.17771 | 32369 ft | 427 kts | 167° |
| 2026-04-16 06:37 | -5.21848 | 107.18375 | 31654 ft | 419 kts | 167° |
| 2026-04-16 06:37 | -5.24682 | 107.18970 | 30924 ft | 413 kts | 167° |
| 2026-04-16 06:37 | -5.27476 | 107.19559 | 30206 ft | 407 kts | 167° |
| 2026-04-16 06:38 | -5.30225 | 107.20140 | 29407 ft | 402 kts | 167° |
| 2026-04-16 06:38 | -5.32922 | 107.20771 | 28580 ft | 395 kts | 161° |
| 2026-04-16 06:38 | -5.35470 | 107.21744 | 27781 ft | 389 kts | 153° |
| 2026-04-16 06:38 | -5.37815 | 107.23062 | 27001 ft | 383 kts | 145° |
| 2026-04-16 06:39 | -5.39965 | 107.24601 | 26229 ft | 378 kts | 143° |
| 2026-04-16 06:39 | -5.42091 | 107.26137 | 25486 ft | 374 kts | 143° |
| 2026-04-16 06:39 | -5.44194 | 107.27650 | 24769 ft | 370 kts | 143° |
| 2026-04-16 06:39 | -5.46273 | 107.29143 | 24077 ft | 366 kts | 143° |
| 2026-04-16 06:40 | -5.48332 | 107.30618 | 23384 ft | 362 kts | 143° |
| 2026-04-16 06:40 | -5.50371 | 107.32076 | 22586 ft | 359 kts | 143° |
| 2026-04-16 06:40 | -5.52393 | 107.33523 | 21833 ft | 355 kts | 143° |
| 2026-04-16 06:40 | -5.54386 | 107.34951 | 21157 ft | 350 kts | 143° |
| 2026-04-16 06:41 | -5.56346 | 107.36358 | 20647 ft | 341 kts | 143° |
| 2026-04-16 06:41 | -5.58244 | 107.37722 | 20176 ft | 331 kts | 143° |
| 2026-04-16 06:41 | -5.60094 | 107.39053 | 19725 ft | 323 kts | 143° |
| 2026-04-16 06:41 | -5.61899 | 107.40354 | 19308 ft | 315 kts | 143° |
| 2026-04-16 06:42 | -5.63663 | 107.41622 | 18886 ft | 309 kts | 144° |
| 2026-04-16 06:42 | -5.65405 | 107.42872 | 18498 ft | 307 kts | 144° |
| 2026-04-16 06:42 | -5.67143 | 107.44116 | 18106 ft | 306 kts | 144° |
| 2026-04-16 06:42 | -5.68888 | 107.45365 | 17674 ft | 309 kts | 144° |
| 2026-04-16 06:43 | -5.70633 | 107.46619 | 17261 ft | 310 kts | 144° |
| 2026-04-16 06:43 | -5.72390 | 107.47888 | 16868 ft | 311 kts | 144° |
| 2026-04-16 06:43 | -5.74150 | 107.49158 | 16454 ft | 313 kts | 144° |
| 2026-04-16 06:43 | -5.75928 | 107.50438 | 16033 ft | 315 kts | 144° |
| 2026-04-16 06:44 | -5.77716 | 107.51725 | 15602 ft | 318 kts | 144° |
| 2026-04-16 06:44 | -5.79528 | 107.53028 | 15153 ft | 322 kts | 144° |
| 2026-04-16 06:44 | -5.81354 | 107.54340 | 14699 ft | 325 kts | 144° |
| 2026-04-16 06:44 | -5.83187 | 107.55658 | 14440 ft | 321 kts | 144° |
| 2026-04-16 06:45 | -5.84999 | 107.56961 | 14096 ft | 320 kts | 144° |
| 2026-04-16 06:45 | -5.86797 | 107.58253 | 13524 ft | 317 kts | 144° |
| 2026-04-16 06:45 | -5.88585 | 107.59540 | 12868 ft | 315 kts | 144° |
| 2026-04-16 06:45 | -5.90350 | 107.60811 | 12291 ft | 310 kts | 144° |
| 2026-04-16 06:46 | -5.92090 | 107.62032 | 11873 ft | 300 kts | 150° |
| 2026-04-16 06:46 | -5.94018 | 107.62740 | 11407 ft | 293 kts | 172° |
| 2026-04-16 06:46 | -5.96007 | 107.62659 | 10943 ft | 287 kts | 195° |
| 2026-04-16 06:46 | -5.97832 | 107.61812 | 10706 ft | 294 kts | 216° |
| 2026-04-16 06:47 | -5.99245 | 107.60322 | 10463 ft | 298 kts | 236° |
| 2026-04-16 06:47 | -6.00381 | 107.58580 | 10205 ft | 299 kts | 236° |
| 2026-04-16 06:47 | -6.01519 | 107.56830 | 9951 ft | 298 kts | 236° |
| 2026-04-16 06:47 | -6.02638 | 107.55114 | 9700 ft | 297 kts | 236° |
| 2026-04-16 06:48 | -6.03770 | 107.53383 | 9425 ft | 295 kts | 236° |
| 2026-04-16 06:48 | -6.04897 | 107.51663 | 9167 ft | 294 kts | 236° |
| 2026-04-16 06:48 | -6.06020 | 107.49952 | 8914 ft | 293 kts | 236° |
| 2026-04-16 06:48 | -6.07143 | 107.48236 | 8670 ft | 293 kts | 236° |
| 2026-04-16 06:49 | -6.08259 | 107.46529 | 8436 ft | 291 kts | 236° |
| 2026-04-16 06:49 | -6.09382 | 107.44807 | 8190 ft | 290 kts | 236° |
| 2026-04-16 06:49 | -6.10472 | 107.43134 | 7981 ft | 289 kts | 236° |
| 2026-04-16 06:49 | -6.11572 | 107.41446 | 7739 ft | 288 kts | 236° |
| 2026-04-16 06:50 | -6.12668 | 107.39771 | 7503 ft | 287 kts | 236° |
| 2026-04-16 06:50 | -6.12865 | 107.39470 | 7460 ft | 287 kts | 235° |
| 2026-04-16 06:50 | -6.13302 | 107.38854 | 7392 ft | 285 kts | 232° |
| 2026-04-16 06:51 | -6.14459 | 107.37230 | 7148 ft | 286 kts | 235° |
| 2026-04-16 06:51 | -6.15533 | 107.35580 | 6920 ft | 284 kts | 236° |
| 2026-04-16 06:51 | -6.16586 | 107.33907 | 6691 ft | 283 kts | 237° |
| 2026-04-16 06:51 | -6.17641 | 107.32231 | 6459 ft | 283 kts | 236° |
| 2026-04-16 06:52 | -6.18696 | 107.30568 | 6220 ft | 282 kts | 236° |
| 2026-04-16 06:52 | -6.19755 | 107.28917 | 5989 ft | 281 kts | 236° |
| 2026-04-16 06:52 | -6.20808 | 107.27262 | 5914 ft | 281 kts | 236° |
| 2026-04-16 06:52 | -6.21855 | 107.25599 | 5849 ft | 281 kts | 236° |
| 2026-04-16 06:53 | -6.22496 | 107.24578 | 5815 ft | 281 kts | 236° |
| 2026-04-16 06:53 | -6.22538 | 107.24512 | 5812 ft | 281 kts | 236° |
| 2026-04-16 06:53 | -6.23366 | 107.22755 | 5726 ft | 281 kts | 244° |
| 2026-04-16 06:53 | -6.24313 | 107.21044 | 5680 ft | 280 kts | 236° |
| 2026-04-16 06:54 | -6.25416 | 107.19397 | 5613 ft | 280 kts | 234° |
| 2026-04-16 06:54 | -6.26538 | 107.17799 | 5551 ft | 280 kts | 234° |
| 2026-04-16 06:54 | -6.27654 | 107.16193 | 5492 ft | 280 kts | 234° |
| 2026-04-16 06:54 | -6.28742 | 107.14578 | 5383 ft | 279 kts | 235° |
| 2026-04-16 06:55 | -6.29812 | 107.12941 | 5264 ft | 279 kts | 236° |
| 2026-04-16 06:55 | -6.30835 | 107.11320 | 5150 ft | 279 kts | 237° |
| 2026-04-16 06:55 | -6.31858 | 107.09663 | 5027 ft | 278 kts | 237° |
| 2026-04-16 06:55 | -6.32875 | 107.08002 | 4939 ft | 277 kts | 238° |
| 2026-04-16 06:56 | -6.33884 | 107.06348 | 5013 ft | 278 kts | 238° |
| 2026-04-16 06:56 | -6.34897 | 107.04687 | 5024 ft | 279 kts | 238° |
| 2026-04-16 06:56 | -6.35909 | 107.03031 | 5030 ft | 278 kts | 238° |
| 2026-04-16 06:56 | -6.36927 | 107.01371 | 5031 ft | 279 kts | 237° |
| 2026-04-16 06:57 | -6.37947 | 106.99712 | 5028 ft | 279 kts | 238° |
| 2026-04-16 06:57 | -6.38949 | 106.98078 | 5026 ft | 267 kts | 238° |
| 2026-04-16 06:57 | -6.39896 | 106.96527 | 5030 ft | 258 kts | 239° |
| 2026-04-16 06:57 | -6.40576 | 106.94864 | 5004 ft | 258 kts | 256° |
| 2026-04-16 06:58 | -6.40911 | 106.93091 | 4879 ft | 257 kts | 259° |
| 2026-04-16 06:58 | -6.41232 | 106.91330 | 4775 ft | 257 kts | 259° |
| 2026-04-16 06:58 | -6.41557 | 106.89561 | 4667 ft | 256 kts | 259° |
| 2026-04-16 06:58 | -6.41881 | 106.87800 | 4557 ft | 256 kts | 259° |
| 2026-04-16 06:59 | -6.42206 | 106.86044 | 4452 ft | 256 kts | 259° |
| 2026-04-16 06:59 | -6.42532 | 106.84289 | 4337 ft | 254 kts | 259° |
| 2026-04-16 06:59 | -6.42845 | 106.82612 | 4243 ft | 236 kts | 259° |
| 2026-04-16 06:59 | -6.43137 | 106.81016 | 4149 ft | 228 kts | 263° |
| 2026-04-16 07:00 | -6.42989 | 106.79472 | 4050 ft | 219 kts | 292° |
| 2026-04-16 07:00 | -6.42161 | 106.78259 | 3883 ft | 209 kts | 321° |
| 2026-04-16 07:00 | -6.41355 | 106.77753 | 3699 ft | 204 kts | 337° |
| 2026-04-16 07:01 | -6.40971 | 106.77585 | 3546 ft | 206 kts | 338° |
| 2026-04-16 07:01 | -6.39658 | 106.77006 | 3302 ft | 200 kts | 337° |
| 2026-04-16 07:01 | -6.38409 | 106.76446 | 3105 ft | 194 kts | 337° |
| 2026-04-16 07:02 | -6.37194 | 106.75898 | 2892 ft | 190 kts | 338° |
| 2026-04-16 07:02 | -6.36003 | 106.75361 | 2739 ft | 185 kts | 337° |
| 2026-04-16 07:02 | -6.34863 | 106.74845 | 2659 ft | 174 kts | 337° |
| 2026-04-16 07:02 | -6.33751 | 106.74454 | 2576 ft | 164 kts | 358° |
| 2026-04-16 07:03 | -6.32697 | 106.74682 | 2513 ft | 153 kts | 32° |
| 2026-04-16 07:03 | -6.31979 | 106.75438 | 2393 ft | 150 kts | 64° |
| 2026-04-16 07:03 | -6.31655 | 106.76430 | 2245 ft | 149 kts | 73° |
| 2026-04-16 07:03 | -6.31362 | 106.77431 | 2087 ft | 149 kts | 73° |
| 2026-04-16 07:04 | -6.31077 | 106.78406 | 1967 ft | 143 kts | 73° |
| 2026-04-16 07:04 | -6.30798 | 106.79358 | 1833 ft | 141 kts | 73° |
| 2026-04-16 07:04 | -6.30522 | 106.80293 | 1695 ft | 140 kts | 72° |
| 2026-04-16 07:04 | -6.30246 | 106.81222 | 1557 ft | 139 kts | 72° |
| 2026-04-16 07:05 | -6.29857 | 106.82116 | 1385 ft | 138 kts | 63° |
| 2026-04-16 07:05 | -6.29455 | 106.82994 | 1199 ft | 139 kts | 64° |
| 2026-04-16 07:05 | -6.29049 | 106.83880 | 1022 ft | 138 kts | 63° |
| 2026-04-16 07:05 | -6.28644 | 106.84759 | 828 ft | 137 kts | 65° |
| 2026-04-16 07:06 | -6.28250 | 106.85634 | 623 ft | 135 kts | 65° |
| 2026-04-16 07:06 | -6.27865 | 106.86502 | 424 ft | 138 kts | 66° |
| 2026-04-16 07:06 | -6.27471 | 106.87371 | 268 ft | 136 kts | 65° |
| 2026-04-16 07:06 | -6.27073 | 106.88221 | 115 ft | 128 kts | 64° |
| 2026-04-16 07:07 | -6.26739 | 106.88944 | 96 ft | 93 kts | 65° |
| 2026-04-16 07:07 | -6.26575 | 106.89300 | 95 ft | 15 kts | 65° |
| 2026-04-16 07:07 | -6.26556 | 106.89364 | 98 ft | 14 kts | 55° |
| 2026-04-16 07:07 | -6.26494 | 106.89494 | 94 ft | 16 kts | 65° |
| 2026-04-16 07:08 | -6.26488 | 106.89600 | 95 ft | 17 kts | 127° |
| 2026-04-16 07:08 | -6.26554 | 106.89639 | 96 ft | 12 kts | 155° |
| 2026-04-16 07:08 | -6.26629 | 106.89601 | 95 ft | 10 kts | 249° |
| 2026-04-16 07:08 | -6.26653 | 106.89542 | 93 ft | 9 kts | 245° |
| 2026-04-16 07:09 | -6.26676 | 106.89492 | 94 ft | 7 kts | 245° |
| 2026-04-16 07:09 | -6.26690 | 106.89463 | 94 ft | 6 kts | 244° |
| 2026-04-16 07:09 | -6.26711 | 106.89419 | 94 ft | 9 kts | 245° |
| 2026-04-16 07:09 | -6.26734 | 106.89361 | 94 ft | 9 kts | 259° |
| 2026-04-16 07:10 | -6.26706 | 106.89321 | 94 ft | 6 kts | 333° |
| 2026-04-16 07:10 | -6.26679 | 106.89309 | 94 ft | 0 kts | 336° |
| 2026-04-16 07:11 | -6.26669 | 106.89304 | 95 ft | 5 kts | 336° |
| 2026-04-16 07:11 | -6.26627 | 106.89285 | 95 ft | 8 kts | 336° |
| 2026-04-16 07:11 | -6.26576 | 106.89229 | 95 ft | 13 kts | 288° |
| 2026-04-16 07:11 | -6.26536 | 106.89126 | 94 ft | 18 kts | 292° |
| 2026-04-16 07:12 | -6.26500 | 106.89028 | 93 ft | 15 kts | 283° |
| 2026-04-16 07:12 | -6.26526 | 106.88925 | 93 ft | 16 kts | 245° |
| 2026-04-16 07:12 | -6.26575 | 106.88819 | 95 ft | 17 kts | 245° |
| 2026-04-16 07:12 | -6.26607 | 106.88750 | 94 ft | 9 kts | 244° |
| 2026-04-16 07:13 | -6.26612 | 106.88724 | 94 ft | 2 kts | 310° |
| 2026-04-16 07:13 | -6.26600 | 106.88717 | 96 ft | 2 kts | 334° |
| 2026-04-16 07:13 | -6.26589 | 106.88713 | 95 ft | 1 kts | 336° |
| 2026-04-16 07:13 | -6.26572 | 106.88705 | 93 ft | 4 kts | 335° |
| 2026-04-16 07:14 | -6.26566 | 106.88702 | 93 ft | 0 kts | 335° |